Etusivu
METAR-TAF:

METAR-TAF

Lentoasemat :

Umiujaq, Quebec, Kanada

Leveyspiiri: 56-32N, Pituuspiiri: 076-31W, korkeus merenpinnasta: 71 m

Tämänhetkinen sää

Tämä raportti tehtiin 13 tuntia ja 7 minuuttia sitten, kello 22.00 UTC
Tuuli 15 kn idästä/koillisesta
Lämpötila -13°C
Kosteus 78%
Ilmanpaine 1006 hPa
Näkyvyys: 24.1 km
Muutamia pilviä 3000 ft:n korkeudessa
Pilvistä 13000 ft:n korkeudessa
matalaa lumituiskua

METAR: CYMU 052200Z 07015KT 15SM DRSN FEW030 OVC130 M13/M16 A2970 RMK SC1AC7 LAST STFD OBS/NEXT 06 1300Z SLP067

Aika: 06:07 (11:07 UTC)


TAF: puuttuu

Säähavainnot ja -ennusteet yli 4000 lentoasemalta (METAR- ja TAF-raportit).

Käytössä olevat sääasemat on merkitty karttaan keltaisilla ja punaisilla pisteillä.

Aseta hiiri pisteen päälle nähdäksesi sääaseman nimen.

Klikkaa sitten nähdäksesi säähavainnot ja -ennusteet.

Kartan vaihtaminen: klikkaa mustalla rastilla varustettuja vihreitä pisteitä, niin voit zoomata sisään; viivalla varustettua vihreää pistettä, niin voit zoomata ulos tai vihreitä nuolia, niin pääset viereisille kartoille.


METAR-TAF: